sensor_id;sensor_type;location;lat;lon;timestamp;P1;durP1;ratioP1;P2;durP2;ratioP2
5191;SDS011;2615;44.524;11.284;2023-02-19T00:01:44;12.20;;;9.43;;
5191;SDS011;2615;44.524;11.284;2023-02-19T00:04:15;16.43;;;10.00;;
5191;SDS011;2615;44.524;11.284;2023-02-19T00:06:45;15.10;;;9.67;;
5191;SDS011;2615;44.524;11.284;2023-02-19T00:09:16;14.37;;;10.73;;
5191;SDS011;2615;44.524;11.284;2023-02-19T00:11:45;13.20;;;10.47;;
5191;SDS011;2615;44.524;11.284;2023-02-19T00:14:14;12.37;;;9.27;;
5191;SDS011;2615;44.524;11.284;2023-02-19T00:16:44;14.37;;;10.50;;
5191;SDS011;2615;44.524;11.284;2023-02-19T00:19:13;13.03;;;10.30;;
5191;SDS011;2615;44.524;11.284;2023-02-19T00:21:43;12.47;;;10.03;;
5191;SDS011;2615;44.524;11.284;2023-02-19T00:24:12;13.70;;;10.30;;
5191;SDS011;2615;44.524;11.284;2023-02-19T00:26:41;12.00;;;9.53;;
5191;SDS011;2615;44.524;11.284;2023-02-19T00:29:12;12.93;;;10.10;;
5191;SDS011;2615;44.524;11.284;2023-02-19T00:31:42;13.70;;;10.50;;
5191;SDS011;2615;44.524;11.284;2023-02-19T00:34:10;31.50;;;19.60;;
5191;SDS011;2615;44.524;11.284;2023-02-19T00:36:40;36.87;;;26.27;;
5191;SDS011;2615;44.524;11.284;2023-02-19T00:39:10;50.57;;;32.17;;
5191;SDS011;2615;44.524;11.284;2023-02-19T00:41:41;56.77;;;38.53;;
5191;SDS011;2615;44.524;11.284;2023-02-19T00:44:09;67.67;;;42.37;;
5191;SDS011;2615;44.524;11.284;2023-02-19T00:46:39;65.27;;;40.93;;
5191;SDS011;2615;44.524;11.284;2023-02-19T00:49:10;65.80;;;40.47;;
5191;SDS011;2615;44.524;11.284;2023-02-19T00:51:43;71.20;;;43.23;;
5191;SDS011;2615;44.524;11.284;2023-02-19T00:54:12;64.87;;;40.33;;
5191;SDS011;2615;44.524;11.284;2023-02-19T00:56:40;73.33;;;43.10;;
5191;SDS011;2615;44.524;11.284;2023-02-19T00:59:08;66.10;;;42.33;;
5191;SDS011;2615;44.524;11.284;2023-02-19T01:01:37;68.43;;;41.13;;
5191;SDS011;2615;44.524;11.284;2023-02-19T01:04:05;70.27;;;44.37;;
5191;SDS011;2615;44.524;11.284;2023-02-19T01:06:33;69.20;;;43.67;;
5191;SDS011;2615;44.524;11.284;2023-02-19T01:09:04;69.43;;;44.87;;
5191;SDS011;2615;44.524;11.284;2023-02-19T01:11:33;83.10;;;45.17;;
5191;SDS011;2615;44.524;11.284;2023-02-19T01:14:01;79.00;;;46.93;;
5191;SDS011;2615;44.524;11.284;2023-02-19T01:16:30;77.10;;;45.40;;
5191;SDS011;2615;44.524;11.284;2023-02-19T01:18:58;76.27;;;44.30;;
5191;SDS011;2615;44.524;11.284;2023-02-19T01:21:26;90.13;;;47.47;;
5191;SDS011;2615;44.524;11.284;2023-02-19T01:23:56;83.40;;;48.80;;
5191;SDS011;2615;44.524;11.284;2023-02-19T01:26:27;71.67;;;44.50;;
5191;SDS011;2615;44.524;11.284;2023-02-19T01:28:57;84.63;;;47.63;;
5191;SDS011;2615;44.524;11.284;2023-02-19T01:31:25;84.07;;;49.70;;
5191;SDS011;2615;44.524;11.284;2023-02-19T01:33:55;94.67;;;51.43;;
5191;SDS011;2615;44.524;11.284;2023-02-19T01:36:26;85.50;;;47.13;;
5191;SDS011;2615;44.524;11.284;2023-02-19T01:38:55;99.23;;;52.27;;
5191;SDS011;2615;44.524;11.284;2023-02-19T01:41:27;92.00;;;49.37;;
5191;SDS011;2615;44.524;11.284;2023-02-19T01:43:56;89.60;;;50.47;;
5191;SDS011;2615;44.524;11.284;2023-02-19T01:46:26;88.63;;;49.57;;
5191;SDS011;2615;44.524;11.284;2023-02-19T01:48:56;106.03;;;56.03;;
5191;SDS011;2615;44.524;11.284;2023-02-19T01:51:28;87.63;;;51.13;;
5191;SDS011;2615;44.524;11.284;2023-02-19T01:53:59;91.67;;;51.00;;
5191;SDS011;2615;44.524;11.284;2023-02-19T01:56:32;99.27;;;54.80;;
5191;SDS011;2615;44.524;11.284;2023-02-19T01:59:04;78.27;;;46.13;;
5191;SDS011;2615;44.524;11.284;2023-02-19T02:01:34;95.07;;;54.17;;
5191;SDS011;2615;44.524;11.284;2023-02-19T02:04:04;79.70;;;47.40;;
5191;SDS011;2615;44.524;11.284;2023-02-19T02:06:34;76.93;;;47.57;;
5191;SDS011;2615;44.524;11.284;2023-02-19T02:09:08;98.00;;;48.40;;
5191;SDS011;2615;44.524;11.284;2023-02-19T02:11:55;79.40;;;48.70;;
5191;SDS011;2615;44.524;11.284;2023-02-19T02:14:24;90.13;;;50.53;;
5191;SDS011;2615;44.524;11.284;2023-02-19T02:16:56;82.80;;;49.47;;
5191;SDS011;2615;44.524;11.284;2023-02-19T02:19:43;86.07;;;47.17;;
5191;SDS011;2615;44.524;11.284;2023-02-19T02:22:34;94.17;;;50.43;;
5191;SDS011;2615;44.524;11.284;2023-02-19T02:25:12;80.23;;;48.90;;
5191;SDS011;2615;44.524;11.284;2023-02-19T02:27:57;89.37;;;46.90;;
5191;SDS011;2615;44.524;11.284;2023-02-19T02:30:37;77.03;;;45.67;;
5191;SDS011;2615;44.524;11.284;2023-02-19T02:33:11;94.47;;;48.67;;
5191;SDS011;2615;44.524;11.284;2023-02-19T02:35:44;86.97;;;48.87;;
5191;SDS011;2615;44.524;11.284;2023-02-19T02:38:17;80.33;;;44.53;;
5191;SDS011;2615;44.524;11.284;2023-02-19T02:40:48;85.53;;;48.57;;
5191;SDS011;2615;44.524;11.284;2023-02-19T02:43:17;89.53;;;49.50;;
5191;SDS011;2615;44.524;11.284;2023-02-19T02:45:47;87.03;;;47.50;;
5191;SDS011;2615;44.524;11.284;2023-02-19T02:48:17;79.03;;;45.93;;
5191;SDS011;2615;44.524;11.284;2023-02-19T02:50:57;78.07;;;46.23;;
5191;SDS011;2615;44.524;11.284;2023-02-19T02:53:31;68.77;;;43.93;;
5191;SDS011;2615;44.524;11.284;2023-02-19T02:56:20;86.37;;;46.07;;
5191;SDS011;2615;44.524;11.284;2023-02-19T02:58:49;71.53;;;44.03;;
5191;SDS011;2615;44.524;11.284;2023-02-19T03:01:22;87.53;;;46.70;;
5191;SDS011;2615;44.524;11.284;2023-02-19T03:04:11;86.40;;;45.07;;
5191;SDS011;2615;44.524;11.284;2023-02-19T03:06:42;78.53;;;46.03;;
5191;SDS011;2615;44.524;11.284;2023-02-19T03:09:14;81.10;;;44.80;;
5191;SDS011;2615;44.524;11.284;2023-02-19T03:11:46;76.40;;;43.70;;
5191;SDS011;2615;44.524;11.284;2023-02-19T03:14:34;75.93;;;44.23;;
5191;SDS011;2615;44.524;11.284;2023-02-19T03:17:25;76.90;;;45.30;;
5191;SDS011;2615;44.524;11.284;2023-02-19T03:20:15;81.13;;;47.33;;
5191;SDS011;2615;44.524;11.284;2023-02-19T03:22:45;77.93;;;45.43;;
5191;SDS011;2615;44.524;11.284;2023-02-19T03:25:18;81.33;;;46.23;;
5191;SDS011;2615;44.524;11.284;2023-02-19T03:28:06;88.07;;;44.77;;
5191;SDS011;2615;44.524;11.284;2023-02-19T03:30:37;76.40;;;43.23;;
5191;SDS011;2615;44.524;11.284;2023-02-19T03:33:11;80.13;;;44.30;;
5191;SDS011;2615;44.524;11.284;2023-02-19T03:35:42;71.83;;;42.27;;
5191;SDS011;2615;44.524;11.284;2023-02-19T03:38:14;88.37;;;46.20;;
5191;SDS011;2615;44.524;11.284;2023-02-19T03:40:48;69.73;;;43.60;;
5191;SDS011;2615;44.524;11.284;2023-02-19T03:43:23;68.10;;;41.83;;
5191;SDS011;2615;44.524;11.284;2023-02-19T03:46:02;67.60;;;44.00;;
5191;SDS011;2615;44.524;11.284;2023-02-19T03:48:37;79.60;;;43.57;;
5191;SDS011;2615;44.524;11.284;2023-02-19T03:51:18;78.97;;;42.97;;
5191;SDS011;2615;44.524;11.284;2023-02-19T03:53:59;64.33;;;37.30;;
5191;SDS011;2615;44.524;11.284;2023-02-19T03:56:38;73.00;;;40.10;;
5191;SDS011;2615;44.524;11.284;2023-02-19T03:59:12;66.20;;;38.30;;
5191;SDS011;2615;44.524;11.284;2023-02-19T04:01:46;63.73;;;38.80;;
5191;SDS011;2615;44.524;11.284;2023-02-19T04:04:20;62.93;;;36.10;;
5191;SDS011;2615;44.524;11.284;2023-02-19T04:06:53;60.67;;;37.80;;
5191;SDS011;2615;44.524;11.284;2023-02-19T04:09:24;59.20;;;35.03;;
5191;SDS011;2615;44.524;11.284;2023-02-19T04:11:55;64.63;;;36.33;;
5191;SDS011;2615;44.524;11.284;2023-02-19T04:14:24;54.60;;;33.45;;
5191;SDS011;2615;44.524;11.284;2023-02-19T04:16:57;55.72;;;35.75;;
5191;SDS011;2615;44.524;11.284;2023-02-19T04:19:29;53.83;;;34.67;;
5191;SDS011;2615;44.524;11.284;2023-02-19T04:22:01;53.77;;;35.47;;
5191;SDS011;2615;44.524;11.284;2023-02-19T04:24:33;57.42;;;34.90;;
5191;SDS011;2615;44.524;11.284;2023-02-19T04:27:04;56.72;;;35.88;;
5191;SDS011;2615;44.524;11.284;2023-02-19T04:29:35;52.43;;;32.10;;
5191;SDS011;2615;44.524;11.284;2023-02-19T04:32:04;50.97;;;31.10;;
5191;SDS011;2615;44.524;11.284;2023-02-19T04:34:34;43.00;;;28.60;;
5191;SDS011;2615;44.524;11.284;2023-02-19T04:37:02;46.13;;;25.73;;
5191;SDS011;2615;44.524;11.284;2023-02-19T04:39:31;35.40;;;20.80;;
5191;SDS011;2615;44.524;11.284;2023-02-19T04:41:59;36.60;;;21.70;;
5191;SDS011;2615;44.524;11.284;2023-02-19T04:44:27;34.70;;;21.20;;
5191;SDS011;2615;44.524;11.284;2023-02-19T04:46:56;37.87;;;23.10;;
5191;SDS011;2615;44.524;11.284;2023-02-19T04:49:24;33.55;;;20.92;;
5191;SDS011;2615;44.524;11.284;2023-02-19T04:51:53;27.23;;;19.03;;
5191;SDS011;2615;44.524;11.284;2023-02-19T04:54:21;32.23;;;21.03;;
5191;SDS011;2615;44.524;11.284;2023-02-19T04:56:49;29.52;;;18.33;;
5191;SDS011;2615;44.524;11.284;2023-02-19T04:59:17;27.10;;;17.50;;
5191;SDS011;2615;44.524;11.284;2023-02-19T05:01:45;21.63;;;14.83;;
5191;SDS011;2615;44.524;11.284;2023-02-19T05:04:13;23.03;;;14.73;;
5191;SDS011;2615;44.524;11.284;2023-02-19T05:06:42;24.77;;;14.63;;
5191;SDS011;2615;44.524;11.284;2023-02-19T05:09:11;28.73;;;18.70;;
5191;SDS011;2615;44.524;11.284;2023-02-19T05:11:39;23.67;;;16.53;;
5191;SDS011;2615;44.524;11.284;2023-02-19T05:14:07;18.97;;;14.70;;
5191;SDS011;2615;44.524;11.284;2023-02-19T05:16:35;24.50;;;15.23;;
5191;SDS011;2615;44.524;11.284;2023-02-19T05:19:03;20.10;;;12.87;;
5191;SDS011;2615;44.524;11.284;2023-02-19T05:21:32;23.30;;;13.43;;
5191;SDS011;2615;44.524;11.284;2023-02-19T05:24:00;19.07;;;13.00;;
5191;SDS011;2615;44.524;11.284;2023-02-19T05:26:29;18.20;;;12.27;;
5191;SDS011;2615;44.524;11.284;2023-02-19T05:28:57;21.50;;;13.83;;
5191;SDS011;2615;44.524;11.284;2023-02-19T05:31:26;17.80;;;12.40;;
5191;SDS011;2615;44.524;11.284;2023-02-19T05:33:54;18.03;;;12.47;;
5191;SDS011;2615;44.524;11.284;2023-02-19T05:36:23;20.93;;;12.40;;
5191;SDS011;2615;44.524;11.284;2023-02-19T05:38:51;23.37;;;13.47;;
5191;SDS011;2615;44.524;11.284;2023-02-19T05:41:21;29.83;;;14.70;;
5191;SDS011;2615;44.524;11.284;2023-02-19T05:43:51;19.17;;;12.57;;
5191;SDS011;2615;44.524;11.284;2023-02-19T05:46:20;21.27;;;13.43;;
5191;SDS011;2615;44.524;11.284;2023-02-19T05:48:49;15.43;;;12.17;;
5191;SDS011;2615;44.524;11.284;2023-02-19T05:51:19;24.40;;;13.60;;
5191;SDS011;2615;44.524;11.284;2023-02-19T05:53:48;25.93;;;14.93;;
5191;SDS011;2615;44.524;11.284;2023-02-19T05:56:20;21.00;;;13.10;;
5191;SDS011;2615;44.524;11.284;2023-02-19T05:58:55;23.40;;;14.93;;
5191;SDS011;2615;44.524;11.284;2023-02-19T06:01:25;19.80;;;13.40;;
5191;SDS011;2615;44.524;11.284;2023-02-19T06:03:54;17.33;;;12.77;;
5191;SDS011;2615;44.524;11.284;2023-02-19T06:06:23;23.93;;;13.40;;
5191;SDS011;2615;44.524;11.284;2023-02-19T06:08:53;19.90;;;14.73;;
5191;SDS011;2615;44.524;11.284;2023-02-19T06:11:21;19.40;;;14.83;;
5191;SDS011;2615;44.524;11.284;2023-02-19T06:13:50;18.00;;;13.37;;
5191;SDS011;2615;44.524;11.284;2023-02-19T06:16:19;30.63;;;16.77;;
5191;SDS011;2615;44.524;11.284;2023-02-19T06:18:48;23.67;;;14.20;;
5191;SDS011;2615;44.524;11.284;2023-02-19T06:21:16;25.70;;;15.33;;
5191;SDS011;2615;44.524;11.284;2023-02-19T06:23:45;20.20;;;14.03;;
5191;SDS011;2615;44.524;11.284;2023-02-19T06:26:13;22.00;;;13.93;;
5191;SDS011;2615;44.524;11.284;2023-02-19T06:28:43;21.70;;;13.80;;
5191;SDS011;2615;44.524;11.284;2023-02-19T06:31:12;17.57;;;13.27;;
5191;SDS011;2615;44.524;11.284;2023-02-19T06:33:42;19.70;;;13.47;;
5191;SDS011;2615;44.524;11.284;2023-02-19T06:36:11;17.00;;;12.87;;
5191;SDS011;2615;44.524;11.284;2023-02-19T06:38:41;16.83;;;12.93;;
5191;SDS011;2615;44.524;11.284;2023-02-19T06:41:10;22.13;;;15.20;;
5191;SDS011;2615;44.524;11.284;2023-02-19T06:43:39;24.90;;;13.50;;
5191;SDS011;2615;44.524;11.284;2023-02-19T06:46:09;19.50;;;13.53;;
5191;SDS011;2615;44.524;11.284;2023-02-19T06:48:39;21.37;;;13.50;;
5191;SDS011;2615;44.524;11.284;2023-02-19T06:51:10;19.83;;;13.80;;
5191;SDS011;2615;44.524;11.284;2023-02-19T06:53:39;19.53;;;12.97;;
5191;SDS011;2615;44.524;11.284;2023-02-19T06:56:20;24.73;;;13.30;;
5191;SDS011;2615;44.524;11.284;2023-02-19T06:58:49;16.20;;;11.63;;
5191;SDS011;2615;44.524;11.284;2023-02-19T07:01:18;19.07;;;13.90;;
5191;SDS011;2615;44.524;11.284;2023-02-19T07:03:46;16.77;;;12.87;;
5191;SDS011;2615;44.524;11.284;2023-02-19T07:06:15;19.73;;;14.00;;
5191;SDS011;2615;44.524;11.284;2023-02-19T07:08:43;26.43;;;15.87;;
5191;SDS011;2615;44.524;11.284;2023-02-19T07:11:12;19.57;;;13.93;;
5191;SDS011;2615;44.524;11.284;2023-02-19T07:13:40;18.73;;;12.03;;
5191;SDS011;2615;44.524;11.284;2023-02-19T07:16:08;22.77;;;16.00;;
5191;SDS011;2615;44.524;11.284;2023-02-19T07:18:37;59.30;;;43.00;;
5191;SDS011;2615;44.524;11.284;2023-02-19T07:21:06;80.23;;;59.13;;
5191;SDS011;2615;44.524;11.284;2023-02-19T07:23:37;28.33;;;22.17;;
5191;SDS011;2615;44.524;11.284;2023-02-19T07:26:07;24.60;;;16.13;;
5191;SDS011;2615;44.524;11.284;2023-02-19T07:28:36;22.83;;;14.30;;
5191;SDS011;2615;44.524;11.284;2023-02-19T07:31:06;22.90;;;14.60;;
5191;SDS011;2615;44.524;11.284;2023-02-19T07:33:34;17.50;;;12.40;;
5191;SDS011;2615;44.524;11.284;2023-02-19T07:36:05;19.97;;;12.97;;
5191;SDS011;2615;44.524;11.284;2023-02-19T07:38:33;21.60;;;13.60;;
5191;SDS011;2615;44.524;11.284;2023-02-19T07:41:03;19.33;;;14.37;;
5191;SDS011;2615;44.524;11.284;2023-02-19T07:43:33;52.20;;;19.07;;
5191;SDS011;2615;44.524;11.284;2023-02-19T07:46:03;26.20;;;16.37;;
5191;SDS011;2615;44.524;11.284;2023-02-19T07:48:32;24.20;;;14.23;;
5191;SDS011;2615;44.524;11.284;2023-02-19T07:51:01;19.70;;;13.70;;
5191;SDS011;2615;44.524;11.284;2023-02-19T07:53:31;17.10;;;12.20;;
5191;SDS011;2615;44.524;11.284;2023-02-19T07:56:00;24.63;;;13.50;;
5191;SDS011;2615;44.524;11.284;2023-02-19T07:58:31;31.03;;;13.33;;
5191;SDS011;2615;44.524;11.284;2023-02-19T08:01:10;21.03;;;13.00;;
5191;SDS011;2615;44.524;11.284;2023-02-19T08:03:40;20.63;;;13.33;;
5191;SDS011;2615;44.524;11.284;2023-02-19T08:06:08;23.23;;;16.10;;
5191;SDS011;2615;44.524;11.284;2023-02-19T08:08:37;23.20;;;15.50;;
5191;SDS011;2615;44.524;11.284;2023-02-19T08:11:08;26.20;;;19.07;;
5191;SDS011;2615;44.524;11.284;2023-02-19T08:13:53;37.17;;;33.23;;
5191;SDS011;2615;44.524;11.284;2023-02-19T08:16:21;29.90;;;23.33;;
5191;SDS011;2615;44.524;11.284;2023-02-19T08:19:07;33.80;;;24.03;;
5191;SDS011;2615;44.524;11.284;2023-02-19T08:21:35;36.33;;;24.50;;
5191;SDS011;2615;44.524;11.284;2023-02-19T08:24:04;30.50;;;21.60;;
5191;SDS011;2615;44.524;11.284;2023-02-19T08:26:34;31.93;;;23.83;;
5191;SDS011;2615;44.524;11.284;2023-02-19T08:29:02;26.77;;;20.57;;
5191;SDS011;2615;44.524;11.284;2023-02-19T08:31:30;27.30;;;21.13;;
5191;SDS011;2615;44.524;11.284;2023-02-19T08:33:59;24.70;;;18.80;;
5191;SDS011;2615;44.524;11.284;2023-02-19T08:36:27;28.40;;;19.67;;
5191;SDS011;2615;44.524;11.284;2023-02-19T08:38:55;29.90;;;20.77;;
5191;SDS011;2615;44.524;11.284;2023-02-19T08:41:23;29.83;;;17.47;;
5191;SDS011;2615;44.524;11.284;2023-02-19T08:43:53;28.50;;;20.87;;
5191;SDS011;2615;44.524;11.284;2023-02-19T08:46:21;30.33;;;19.67;;
5191;SDS011;2615;44.524;11.284;2023-02-19T08:48:49;27.20;;;20.07;;
5191;SDS011;2615;44.524;11.284;2023-02-19T08:51:17;31.10;;;21.50;;
5191;SDS011;2615;44.524;11.284;2023-02-19T08:53:45;35.10;;;25.43;;
5191;SDS011;2615;44.524;11.284;2023-02-19T08:56:14;98.93;;;72.43;;
5191;SDS011;2615;44.524;11.284;2023-02-19T08:58:44;46.07;;;34.30;;
5191;SDS011;2615;44.524;11.284;2023-02-19T09:01:14;36.30;;;25.60;;
5191;SDS011;2615;44.524;11.284;2023-02-19T09:03:44;140.83;;;106.93;;
5191;SDS011;2615;44.524;11.284;2023-02-19T09:06:13;57.50;;;39.50;;
5191;SDS011;2615;44.524;11.284;2023-02-19T09:08:43;44.10;;;24.97;;
5191;SDS011;2615;44.524;11.284;2023-02-19T09:11:11;42.30;;;26.83;;
5191;SDS011;2615;44.524;11.284;2023-02-19T09:13:40;63.83;;;49.93;;
5191;SDS011;2615;44.524;11.284;2023-02-19T09:16:09;39.03;;;25.70;;
5191;SDS011;2615;44.524;11.284;2023-02-19T09:18:38;42.17;;;29.70;;
5191;SDS011;2615;44.524;11.284;2023-02-19T09:21:07;42.33;;;29.30;;
5191;SDS011;2615;44.524;11.284;2023-02-19T09:23:35;40.67;;;26.90;;
5191;SDS011;2615;44.524;11.284;2023-02-19T09:26:04;40.40;;;27.80;;
5191;SDS011;2615;44.524;11.284;2023-02-19T09:28:35;41.40;;;30.17;;
5191;SDS011;2615;44.524;11.284;2023-02-19T09:31:07;36.80;;;25.03;;
5191;SDS011;2615;44.524;11.284;2023-02-19T09:33:41;34.20;;;23.60;;
5191;SDS011;2615;44.524;11.284;2023-02-19T09:36:10;32.77;;;20.67;;
5191;SDS011;2615;44.524;11.284;2023-02-19T09:38:39;37.33;;;26.13;;
5191;SDS011;2615;44.524;11.284;2023-02-19T09:41:08;40.73;;;24.07;;
5191;SDS011;2615;44.524;11.284;2023-02-19T09:43:45;27.73;;;19.47;;
5191;SDS011;2615;44.524;11.284;2023-02-19T09:46:17;29.10;;;19.27;;
5191;SDS011;2615;44.524;11.284;2023-02-19T09:48:53;33.33;;;20.10;;
5191;SDS011;2615;44.524;11.284;2023-02-19T09:51:25;28.00;;;19.53;;
5191;SDS011;2615;44.524;11.284;2023-02-19T09:53:54;36.50;;;24.37;;
5191;SDS011;2615;44.524;11.284;2023-02-19T09:56:24;29.70;;;22.10;;
5191;SDS011;2615;44.524;11.284;2023-02-19T09:58:54;25.37;;;17.47;;
5191;SDS011;2615;44.524;11.284;2023-02-19T10:01:25;29.23;;;15.90;;
5191;SDS011;2615;44.524;11.284;2023-02-19T10:04:00;25.17;;;17.10;;
5191;SDS011;2615;44.524;11.284;2023-02-19T10:06:30;23.97;;;17.00;;
5191;SDS011;2615;44.524;11.284;2023-02-19T10:09:05;22.40;;;16.13;;
5191;SDS011;2615;44.524;11.284;2023-02-19T10:11:44;26.23;;;17.50;;
5191;SDS011;2615;44.524;11.284;2023-02-19T10:14:14;37.40;;;20.80;;
5191;SDS011;2615;44.524;11.284;2023-02-19T10:16:45;27.57;;;18.90;;
5191;SDS011;2615;44.524;11.284;2023-02-19T10:19:17;23.73;;;17.27;;
5191;SDS011;2615;44.524;11.284;2023-02-19T10:21:46;20.57;;;16.40;;
5191;SDS011;2615;44.524;11.284;2023-02-19T10:24:15;24.97;;;17.37;;
5191;SDS011;2615;44.524;11.284;2023-02-19T10:26:48;22.23;;;17.40;;
5191;SDS011;2615;44.524;11.284;2023-02-19T10:29:17;23.37;;;16.93;;
5191;SDS011;2615;44.524;11.284;2023-02-19T10:31:46;23.17;;;16.37;;
5191;SDS011;2615;44.524;11.284;2023-02-19T10:34:19;21.63;;;16.17;;
5191;SDS011;2615;44.524;11.284;2023-02-19T10:36:49;23.97;;;17.80;;
5191;SDS011;2615;44.524;11.284;2023-02-19T10:39:28;21.07;;;15.90;;
5191;SDS011;2615;44.524;11.284;2023-02-19T10:42:14;19.97;;;15.33;;
5191;SDS011;2615;44.524;11.284;2023-02-19T10:44:44;22.83;;;17.30;;
5191;SDS011;2615;44.524;11.284;2023-02-19T10:47:17;26.90;;;18.23;;
5191;SDS011;2615;44.524;11.284;2023-02-19T10:49:49;26.77;;;17.20;;
5191;SDS011;2615;44.524;11.284;2023-02-19T10:52:19;23.27;;;16.83;;
5191;SDS011;2615;44.524;11.284;2023-02-19T10:54:50;26.80;;;18.33;;
5191;SDS011;2615;44.524;11.284;2023-02-19T10:57:26;21.90;;;15.50;;
5191;SDS011;2615;44.524;11.284;2023-02-19T10:59:58;23.80;;;16.83;;
5191;SDS011;2615;44.524;11.284;2023-02-19T11:02:29;23.10;;;16.20;;
5191;SDS011;2615;44.524;11.284;2023-02-19T11:05:03;23.67;;;16.47;;
5191;SDS011;2615;44.524;11.284;2023-02-19T11:07:45;24.57;;;16.80;;
5191;SDS011;2615;44.524;11.284;2023-02-19T11:13:01;22.20;;;17.57;;
5191;SDS011;2615;44.524;11.284;2023-02-19T11:15:31;18.40;;;14.70;;
5191;SDS011;2615;44.524;11.284;2023-02-19T11:18:03;22.27;;;16.60;;
5191;SDS011;2615;44.524;11.284;2023-02-19T11:20:36;24.43;;;17.53;;
5191;SDS011;2615;44.524;11.284;2023-02-19T11:23:14;24.83;;;17.20;;
5191;SDS011;2615;44.524;11.284;2023-02-19T11:25:47;23.77;;;18.83;;
5191;SDS011;2615;44.524;11.284;2023-02-19T11:28:23;26.27;;;17.27;;
5191;SDS011;2615;44.524;11.284;2023-02-19T11:30:55;25.07;;;17.70;;
5191;SDS011;2615;44.524;11.284;2023-02-19T11:33:42;24.13;;;16.97;;
5191;SDS011;2615;44.524;11.284;2023-02-19T11:39:03;21.50;;;16.03;;
5191;SDS011;2615;44.524;11.284;2023-02-19T11:44:51;24.37;;;17.43;;
5191;SDS011;2615;44.524;11.284;2023-02-19T11:47:41;23.83;;;16.77;;
5191;SDS011;2615;44.524;11.284;2023-02-19T11:50:26;22.40;;;16.70;;
5191;SDS011;2615;44.524;11.284;2023-02-19T11:53:03;26.47;;;17.93;;
5191;SDS011;2615;44.524;11.284;2023-02-19T11:55:46;27.80;;;19.13;;
5191;SDS011;2615;44.524;11.284;2023-02-19T11:58:35;26.90;;;18.67;;
5191;SDS011;2615;44.524;11.284;2023-02-19T12:01:16;22.40;;;16.37;;
5191;SDS011;2615;44.524;11.284;2023-02-19T12:04:00;39.43;;;19.63;;
5191;SDS011;2615;44.524;11.284;2023-02-19T12:06:46;25.40;;;17.43;;
5191;SDS011;2615;44.524;11.284;2023-02-19T12:09:30;24.93;;;18.20;;
5191;SDS011;2615;44.524;11.284;2023-02-19T12:12:14;25.37;;;17.10;;
5191;SDS011;2615;44.524;11.284;2023-02-19T12:17:53;20.50;;;17.00;;
5191;SDS011;2615;44.524;11.284;2023-02-19T12:20:37;25.73;;;16.50;;
5191;SDS011;2615;44.524;11.284;2023-02-19T12:23:17;24.40;;;17.90;;
5191;SDS011;2615;44.524;11.284;2023-02-19T12:25:59;23.70;;;18.10;;
5191;SDS011;2615;44.524;11.284;2023-02-19T12:31:53;25.60;;;16.87;;
5191;SDS011;2615;44.524;11.284;2023-02-19T12:37:51;29.53;;;17.77;;
5191;SDS011;2615;44.524;11.284;2023-02-19T12:40:33;23.00;;;17.30;;
5191;SDS011;2615;44.524;11.284;2023-02-19T12:43:12;22.33;;;17.20;;
5191;SDS011;2615;44.524;11.284;2023-02-19T12:45:45;25.60;;;19.63;;
5191;SDS011;2615;44.524;11.284;2023-02-19T12:48:22;27.40;;;18.30;;
5191;SDS011;2615;44.524;11.284;2023-02-19T12:50:56;25.77;;;15.93;;
5191;SDS011;2615;44.524;11.284;2023-02-19T12:53:33;20.83;;;16.33;;
5191;SDS011;2615;44.524;11.284;2023-02-19T12:56:08;23.83;;;17.67;;
5191;SDS011;2615;44.524;11.284;2023-02-19T12:58:41;24.33;;;17.27;;
5191;SDS011;2615;44.524;11.284;2023-02-19T13:01:13;25.20;;;17.30;;
5191;SDS011;2615;44.524;11.284;2023-02-19T13:03:46;21.03;;;15.27;;
5191;SDS011;2615;44.524;11.284;2023-02-19T13:06:26;23.40;;;15.67;;
5191;SDS011;2615;44.524;11.284;2023-02-19T13:09:05;21.77;;;16.83;;
5191;SDS011;2615;44.524;11.284;2023-02-19T13:11:37;19.77;;;15.57;;
5191;SDS011;2615;44.524;11.284;2023-02-19T13:14:13;22.37;;;16.77;;
5191;SDS011;2615;44.524;11.284;2023-02-19T13:16:47;23.77;;;16.57;;
5191;SDS011;2615;44.524;11.284;2023-02-19T13:19:19;24.33;;;16.83;;
5191;SDS011;2615;44.524;11.284;2023-02-19T13:21:54;22.00;;;15.37;;
5191;SDS011;2615;44.524;11.284;2023-02-19T13:24:47;20.47;;;15.70;;
5191;SDS011;2615;44.524;11.284;2023-02-19T13:27:27;22.23;;;15.17;;
5191;SDS011;2615;44.524;11.284;2023-02-19T13:30:11;19.00;;;14.60;;
5191;SDS011;2615;44.524;11.284;2023-02-19T13:33:00;28.40;;;15.37;;
5191;SDS011;2615;44.524;11.284;2023-02-19T13:35:40;21.47;;;15.10;;
5191;SDS011;2615;44.524;11.284;2023-02-19T13:38:36;22.30;;;14.20;;
5191;SDS011;2615;44.524;11.284;2023-02-19T13:41:15;23.70;;;16.50;;
5191;SDS011;2615;44.524;11.284;2023-02-19T13:43:45;20.93;;;16.23;;
5191;SDS011;2615;44.524;11.284;2023-02-19T13:46:22;17.43;;;13.40;;
5191;SDS011;2615;44.524;11.284;2023-02-19T13:52:32;16.03;;;13.40;;
5191;SDS011;2615;44.524;11.284;2023-02-19T14:01:02;18.10;;;13.30;;
5191;SDS011;2615;44.524;11.284;2023-02-19T14:03:39;19.43;;;14.57;;
5191;SDS011;2615;44.524;11.284;2023-02-19T14:06:13;20.50;;;13.40;;
5191;SDS011;2615;44.524;11.284;2023-02-19T14:08:48;22.20;;;13.80;;
5191;SDS011;2615;44.524;11.284;2023-02-19T14:14:33;16.10;;;12.60;;
5191;SDS011;2615;44.524;11.284;2023-02-19T14:17:03;19.00;;;13.97;;
5191;SDS011;2615;44.524;11.284;2023-02-19T14:19:55;22.43;;;14.53;;
5191;SDS011;2615;44.524;11.284;2023-02-19T14:25:34;19.47;;;13.97;;
5191;SDS011;2615;44.524;11.284;2023-02-19T14:28:16;20.07;;;14.87;;
5191;SDS011;2615;44.524;11.284;2023-02-19T14:30:50;19.40;;;14.00;;
5191;SDS011;2615;44.524;11.284;2023-02-19T14:33:21;20.80;;;15.20;;
5191;SDS011;2615;44.524;11.284;2023-02-19T14:35:53;29.57;;;14.80;;
5191;SDS011;2615;44.524;11.284;2023-02-19T14:38:25;20.63;;;14.00;;
5191;SDS011;2615;44.524;11.284;2023-02-19T14:40:56;24.17;;;14.17;;
5191;SDS011;2615;44.524;11.284;2023-02-19T14:43:25;16.80;;;13.60;;
5191;SDS011;2615;44.524;11.284;2023-02-19T14:45:55;20.13;;;15.10;;
5191;SDS011;2615;44.524;11.284;2023-02-19T14:48:27;20.17;;;15.83;;
5191;SDS011;2615;44.524;11.284;2023-02-19T14:51:01;16.70;;;13.93;;
5191;SDS011;2615;44.524;11.284;2023-02-19T14:53:35;15.60;;;12.30;;
5191;SDS011;2615;44.524;11.284;2023-02-19T14:56:05;17.77;;;13.83;;
5191;SDS011;2615;44.524;11.284;2023-02-19T14:58:44;17.13;;;12.60;;
5191;SDS011;2615;44.524;11.284;2023-02-19T15:01:24;27.90;;;13.70;;
5191;SDS011;2615;44.524;11.284;2023-02-19T15:03:53;20.53;;;15.00;;
5191;SDS011;2615;44.524;11.284;2023-02-19T15:06:23;18.50;;;14.60;;
5191;SDS011;2615;44.524;11.284;2023-02-19T15:08:55;22.53;;;14.47;;
5191;SDS011;2615;44.524;11.284;2023-02-19T15:11:26;20.23;;;13.00;;
5191;SDS011;2615;44.524;11.284;2023-02-19T15:13:58;24.00;;;14.53;;
5191;SDS011;2615;44.524;11.284;2023-02-19T15:16:28;25.50;;;14.47;;
5191;SDS011;2615;44.524;11.284;2023-02-19T15:18:58;24.50;;;15.07;;
5191;SDS011;2615;44.524;11.284;2023-02-19T15:21:30;16.83;;;13.50;;
5191;SDS011;2615;44.524;11.284;2023-02-19T15:24:06;17.10;;;13.37;;
5191;SDS011;2615;44.524;11.284;2023-02-19T15:26:35;16.37;;;14.57;;
5191;SDS011;2615;44.524;11.284;2023-02-19T15:29:08;21.17;;;15.30;;
5191;SDS011;2615;44.524;11.284;2023-02-19T15:31:43;27.73;;;15.43;;
5191;SDS011;2615;44.524;11.284;2023-02-19T15:34:15;23.10;;;15.93;;
5191;SDS011;2615;44.524;11.284;2023-02-19T15:36:46;17.27;;;13.37;;
5191;SDS011;2615;44.524;11.284;2023-02-19T15:39:18;45.50;;;18.10;;